Whitby, United Kingdom
Current Conditions -  °F | °C
As of 11:20 AM on Tuesday 21 Oct 2014 (Local Time) from EGNV Reporting Station
Few Clouds Few Clouds  
Wind Chill: 11°   Ceiling: Unl
Heat Index: 11°   Visibility: 6mi
Dew Point:   Wind: 23mph
Humidity: 58%   Direction: 280°W
Pressure: 29.41"   Gusts: 37mph
Location:  54.48°N, 0.64°W
Report Text: EGNV 211020Z 28020G32KT 250V310 9999 FEW030 11/03 Q0996
Loading
Personal Weather Stations






























Interactive Weather Map
Tropical Storm Tracking
New forecast layout! Learn more

10-Day Weather Forecast

Advertisements
Track Severe Weather on mobile